sensor_id;sensor_type;location;lat;lon;timestamp;pressure;altitude;pressure_sealevel;temperature;humidity
75551;BME280;65071;53.082;18.218;2023-06-14T00:00:32;101543.67;;;15.74;65.31
75551;BME280;65071;53.082;18.218;2023-06-14T00:03:21;101540.41;;;15.71;66.08
75551;BME280;65071;53.082;18.218;2023-06-14T00:05:48;101539.69;;;15.68;65.26
75551;BME280;65071;53.082;18.218;2023-06-14T00:08:15;101532.71;;;15.67;65.51
75551;BME280;65071;53.082;18.218;2023-06-14T00:10:41;101535.27;;;15.65;66.08
75551;BME280;65071;53.082;18.218;2023-06-14T00:13:09;101533.23;;;15.64;65.19
75551;BME280;65071;53.082;18.218;2023-06-14T00:15:36;101528.19;;;15.65;65.23
75551;BME280;65071;53.082;18.218;2023-06-14T00:18:04;101522.01;;;15.67;65.47
75551;BME280;65071;53.082;18.218;2023-06-14T00:20:33;101522.45;;;15.66;65.86
75551;BME280;65071;53.082;18.218;2023-06-14T00:23:00;101522.09;;;15.64;66.44
75551;BME280;65071;53.082;18.218;2023-06-14T00:25:27;101522.77;;;15.62;66.53
75551;BME280;65071;53.082;18.218;2023-06-14T00:27:55;101519.56;;;15.59;66.32
75551;BME280;65071;53.082;18.218;2023-06-14T00:30:22;101523.01;;;15.58;66.03
75551;BME280;65071;53.082;18.218;2023-06-14T00:32:49;101519.56;;;15.58;65.93
75551;BME280;65071;53.082;18.218;2023-06-14T00:35:17;101518.88;;;15.57;66.59
75551;BME280;65071;53.082;18.218;2023-06-14T00:37:44;101517.73;;;15.56;66.72
75551;BME280;65071;53.082;18.218;2023-06-14T00:40:11;101514.23;;;15.55;66.15
75551;BME280;65071;53.082;18.218;2023-06-14T00:42:37;101515.48;;;15.57;65.84
75551;BME280;65071;53.082;18.218;2023-06-14T00:45:05;101510.12;;;15.60;66.07
75551;BME280;65071;53.082;18.218;2023-06-14T00:47:31;101497.73;;;15.60;67.04
75551;BME280;65071;53.082;18.218;2023-06-14T00:49:58;101490.59;;;15.61;66.43
75551;BME280;65071;53.082;18.218;2023-06-14T00:52:27;101488.94;;;15.61;66.87
75551;BME280;65071;53.082;18.218;2023-06-14T00:54:54;101481.83;;;15.61;66.81
75551;BME280;65071;53.082;18.218;2023-06-14T00:57:20;101475.58;;;15.62;67.44
75551;BME280;65071;53.082;18.218;2023-06-14T00:59:48;101472.98;;;15.59;69.08
75551;BME280;65071;53.082;18.218;2023-06-14T01:02:16;101478.97;;;15.56;68.17
75551;BME280;65071;53.082;18.218;2023-06-14T01:04:48;101480.73;;;15.51;68.84
75551;BME280;65071;53.082;18.218;2023-06-14T01:13:39;101485.29;;;15.43;69.04
75551;BME280;65071;53.082;18.218;2023-06-14T01:16:09;101479.80;;;15.40;69.77
75551;BME280;65071;53.082;18.218;2023-06-14T01:18:36;101477.16;;;15.37;70.42
75551;BME280;65071;53.082;18.218;2023-06-14T01:21:03;101477.91;;;15.37;69.61
75551;BME280;65071;53.082;18.218;2023-06-14T01:23:33;101472.58;;;15.38;70.26
75551;BME280;65071;53.082;18.218;2023-06-14T01:26:00;101471.58;;;15.37;72.13
75551;BME280;65071;53.082;18.218;2023-06-14T01:28:33;101469.92;;;15.34;72.59
75551;BME280;65071;53.082;18.218;2023-06-14T01:31:02;101468.14;;;15.31;74.10
75551;BME280;65071;53.082;18.218;2023-06-14T01:33:34;101468.73;;;15.24;75.00
75551;BME280;65071;53.082;18.218;2023-06-14T01:36:02;101469.86;;;15.16;73.66
75551;BME280;65071;53.082;18.218;2023-06-14T01:38:31;101465.64;;;15.12;72.64
75551;BME280;65071;53.082;18.218;2023-06-14T01:40:59;101469.23;;;15.09;72.30
75551;BME280;65071;53.082;18.218;2023-06-14T01:43:29;101469.02;;;15.06;73.60
75551;BME280;65071;53.082;18.218;2023-06-14T01:45:58;101458.88;;;15.01;71.80
75551;BME280;65071;53.082;18.218;2023-06-14T01:48:27;101458.55;;;14.97;72.38
75551;BME280;65071;53.082;18.218;2023-06-14T01:50:54;101460.02;;;14.94;72.23
75551;BME280;65071;53.082;18.218;2023-06-14T01:53:21;101460.54;;;14.92;72.06
75551;BME280;65071;53.082;18.218;2023-06-14T01:55:47;101458.98;;;14.92;74.08
75551;BME280;65071;53.082;18.218;2023-06-14T01:58:15;101455.73;;;14.88;74.02
75551;BME280;65071;53.082;18.218;2023-06-14T02:00:45;101458.03;;;14.85;73.59
75551;BME280;65071;53.082;18.218;2023-06-14T02:03:11;101458.44;;;14.85;73.05
75551;BME280;65071;53.082;18.218;2023-06-14T02:05:38;101459.18;;;14.85;73.70
75551;BME280;65071;53.082;18.218;2023-06-14T02:08:06;101458.09;;;14.85;73.16
75551;BME280;65071;53.082;18.218;2023-06-14T02:10:34;101456.17;;;14.84;74.18
75551;BME280;65071;53.082;18.218;2023-06-14T02:13:01;101458.94;;;14.84;73.45
75551;BME280;65071;53.082;18.218;2023-06-14T02:15:27;101463.92;;;14.84;73.12
75551;BME280;65071;53.082;18.218;2023-06-14T02:18:01;101456.83;;;14.83;74.26
75551;BME280;65071;53.082;18.218;2023-06-14T02:20:28;101448.73;;;14.81;75.42
75551;BME280;65071;53.082;18.218;2023-06-14T02:22:57;101450.92;;;14.77;75.95
75551;BME280;65071;53.082;18.218;2023-06-14T02:25:23;101452.52;;;14.76;76.06
75551;BME280;65071;53.082;18.218;2023-06-14T02:27:50;101455.40;;;14.75;76.79
75551;BME280;65071;53.082;18.218;2023-06-14T02:30:17;101449.95;;;14.73;76.75
75551;BME280;65071;53.082;18.218;2023-06-14T02:32:43;101446.83;;;14.72;75.99
75551;BME280;65071;53.082;18.218;2023-06-14T02:35:12;101439.48;;;14.69;77.37
75551;BME280;65071;53.082;18.218;2023-06-14T02:37:39;101438.82;;;14.66;75.40
75551;BME280;65071;53.082;18.218;2023-06-14T02:40:06;101430.19;;;14.63;74.69
75551;BME280;65071;53.082;18.218;2023-06-14T02:42:35;101426.76;;;14.63;74.95
75551;BME280;65071;53.082;18.218;2023-06-14T02:45:04;101426.83;;;14.64;74.39
75551;BME280;65071;53.082;18.218;2023-06-14T02:47:31;101424.54;;;14.67;75.22
75551;BME280;65071;53.082;18.218;2023-06-14T02:49:58;101421.44;;;14.66;74.34
75551;BME280;65071;53.082;18.218;2023-06-14T02:52:24;101422.95;;;14.63;73.87
75551;BME280;65071;53.082;18.218;2023-06-14T02:54:51;101428.56;;;14.63;73.59
75551;BME280;65071;53.082;18.218;2023-06-14T02:57:18;101432.32;;;14.64;73.90
75551;BME280;65071;53.082;18.218;2023-06-14T02:59:45;101437.95;;;14.63;74.25
75551;BME280;65071;53.082;18.218;2023-06-14T03:02:12;101434.42;;;14.63;73.36
75551;BME280;65071;53.082;18.218;2023-06-14T03:04:38;101424.64;;;14.63;73.31
75551;BME280;65071;53.082;18.218;2023-06-14T03:07:11;101425.62;;;14.60;73.73
75551;BME280;65071;53.082;18.218;2023-06-14T03:09:40;101429.39;;;14.59;74.24
75551;BME280;65071;53.082;18.218;2023-06-14T03:12:07;101427.45;;;14.57;72.94
75551;BME280;65071;53.082;18.218;2023-06-14T03:14:35;101423.48;;;14.55;73.28
75551;BME280;65071;53.082;18.218;2023-06-14T03:17:03;101422.02;;;14.53;73.18
75551;BME280;65071;53.082;18.218;2023-06-14T03:19:31;101424.23;;;14.53;72.88
75551;BME280;65071;53.082;18.218;2023-06-14T03:21:58;101426.27;;;14.54;73.07
75551;BME280;65071;53.082;18.218;2023-06-14T03:24:27;101426.16;;;14.54;74.19
75551;BME280;65071;53.082;18.218;2023-06-14T03:26:54;101434.65;;;14.52;73.48
75551;BME280;65071;53.082;18.218;2023-06-14T03:29:21;101435.37;;;14.54;72.95
75551;BME280;65071;53.082;18.218;2023-06-14T03:32:04;101439.06;;;14.55;72.93
75551;BME280;65071;53.082;18.218;2023-06-14T03:34:37;101440.20;;;14.56;72.96
75551;BME280;65071;53.082;18.218;2023-06-14T03:37:05;101444.05;;;14.57;73.74
75551;BME280;65071;53.082;18.218;2023-06-14T03:39:32;101449.75;;;14.58;72.78
75551;BME280;65071;53.082;18.218;2023-06-14T03:41:59;101450.67;;;14.60;72.72
75551;BME280;65071;53.082;18.218;2023-06-14T03:44:26;101447.19;;;14.60;72.75
75551;BME280;65071;53.082;18.218;2023-06-14T03:46:53;101452.79;;;14.62;73.37
75551;BME280;65071;53.082;18.218;2023-06-14T03:49:19;101449.90;;;14.62;73.00
75551;BME280;65071;53.082;18.218;2023-06-14T03:51:46;101448.48;;;14.63;72.47
75551;BME280;65071;53.082;18.218;2023-06-14T03:54:17;101446.43;;;14.66;72.56
75551;BME280;65071;53.082;18.218;2023-06-14T03:56:44;101446.71;;;14.68;72.78
75551;BME280;65071;53.082;18.218;2023-06-14T03:59:12;101457.23;;;14.71;72.65
75551;BME280;65071;53.082;18.218;2023-06-14T04:01:39;101458.64;;;14.75;72.35
75551;BME280;65071;53.082;18.218;2023-06-14T04:04:12;101453.79;;;14.76;72.42
75551;BME280;65071;53.082;18.218;2023-06-14T04:06:39;101453.65;;;14.78;72.65
75551;BME280;65071;53.082;18.218;2023-06-14T04:09:06;101455.56;;;14.80;72.79
75551;BME280;65071;53.082;18.218;2023-06-14T04:11:33;101461.98;;;14.82;72.58
75551;BME280;65071;53.082;18.218;2023-06-14T04:14:01;101472.91;;;14.85;72.73
75551;BME280;65071;53.082;18.218;2023-06-14T04:16:28;101476.03;;;14.86;73.38
75551;BME280;65071;53.082;18.218;2023-06-14T04:18:55;101480.98;;;14.88;73.22
75551;BME280;65071;53.082;18.218;2023-06-14T04:21:22;101483.27;;;14.92;73.32
75551;BME280;65071;53.082;18.218;2023-06-14T04:23:51;101481.98;;;14.95;73.01
75551;BME280;65071;53.082;18.218;2023-06-14T04:26:21;101481.73;;;14.99;73.27
75551;BME280;65071;53.082;18.218;2023-06-14T04:28:50;101478.17;;;15.02;73.56
75551;BME280;65071;53.082;18.218;2023-06-14T04:31:17;101480.09;;;15.05;73.51
75551;BME280;65071;53.082;18.218;2023-06-14T04:33:44;101480.03;;;15.10;74.18
75551;BME280;65071;53.082;18.218;2023-06-14T04:36:16;101475.23;;;15.15;73.83
75551;BME280;65071;53.082;18.218;2023-06-14T04:38:44;101469.71;;;15.23;74.03
75551;BME280;65071;53.082;18.218;2023-06-14T04:41:15;101466.41;;;15.32;74.14
75551;BME280;65071;53.082;18.218;2023-06-14T04:43:43;101460.59;;;15.40;74.33
75551;BME280;65071;53.082;18.218;2023-06-14T04:46:10;101453.83;;;15.47;74.20
75551;BME280;65071;53.082;18.218;2023-06-14T04:48:39;101453.70;;;15.55;73.52
75551;BME280;65071;53.082;18.218;2023-06-14T04:51:10;101444.70;;;15.61;73.16
75551;BME280;65071;53.082;18.218;2023-06-14T04:53:37;101438.85;;;15.64;73.21
75551;BME280;65071;53.082;18.218;2023-06-14T04:56:05;101438.79;;;15.66;72.56
75551;BME280;65071;53.082;18.218;2023-06-14T04:58:33;101442.20;;;15.70;72.72
75551;BME280;65071;53.082;18.218;2023-06-14T05:01:00;101449.30;;;15.75;72.58
75551;BME280;65071;53.082;18.218;2023-06-14T05:03:27;101457.66;;;15.82;72.47
75551;BME280;65071;53.082;18.218;2023-06-14T05:05:57;101463.85;;;15.92;71.86
75551;BME280;65071;53.082;18.218;2023-06-14T05:08:23;101465.94;;;16.00;72.35
75551;BME280;65071;53.082;18.218;2023-06-14T05:10:50;101464.34;;;16.07;72.06
75551;BME280;65071;53.082;18.218;2023-06-14T05:13:17;101460.79;;;16.18;71.51
75551;BME280;65071;53.082;18.218;2023-06-14T05:15:45;101465.60;;;16.28;71.50
75551;BME280;65071;53.082;18.218;2023-06-14T05:18:12;101465.59;;;16.37;70.82
75551;BME280;65071;53.082;18.218;2023-06-14T05:20:39;101470.00;;;16.45;70.07
75551;BME280;65071;53.082;18.218;2023-06-14T05:23:09;101478.83;;;16.51;69.78
75551;BME280;65071;53.082;18.218;2023-06-14T05:25:44;101479.85;;;16.54;68.64
75551;BME280;65071;53.082;18.218;2023-06-14T05:28:11;101474.10;;;16.56;69.06
75551;BME280;65071;53.082;18.218;2023-06-14T05:30:38;101470.62;;;16.52;68.82
75551;BME280;65071;53.082;18.218;2023-06-14T05:33:06;101461.34;;;16.53;69.57
75551;BME280;65071;53.082;18.218;2023-06-14T05:35:33;101454.48;;;16.59;69.48
75551;BME280;65071;53.082;18.218;2023-06-14T05:37:59;101448.77;;;16.66;69.30
75551;BME280;65071;53.082;18.218;2023-06-14T05:40:26;101443.20;;;16.76;69.18
75551;BME280;65071;53.082;18.218;2023-06-14T05:42:53;101439.14;;;16.86;68.92
75551;BME280;65071;53.082;18.218;2023-06-14T05:45:19;101437.42;;;16.97;69.16
75551;BME280;65071;53.082;18.218;2023-06-14T05:47:46;101434.59;;;17.12;69.30
75551;BME280;65071;53.082;18.218;2023-06-14T05:50:13;101435.31;;;17.27;69.74
75551;BME280;65071;53.082;18.218;2023-06-14T05:52:42;101434.27;;;17.43;69.30
75551;BME280;65071;53.082;18.218;2023-06-14T05:55:41;101429.39;;;17.59;68.96
75551;BME280;65071;53.082;18.218;2023-06-14T06:01:47;101431.33;;;17.96;66.73
75551;BME280;65071;53.082;18.218;2023-06-14T06:04:35;101434.23;;;18.08;66.62
75551;BME280;65071;53.082;18.218;2023-06-14T06:07:10;101437.52;;;18.22;66.74
75551;BME280;65071;53.082;18.218;2023-06-14T06:09:40;101445.37;;;18.37;66.73
75551;BME280;65071;53.082;18.218;2023-06-14T06:12:13;101455.63;;;18.50;66.13
75551;BME280;65071;53.082;18.218;2023-06-14T06:14:40;101458.02;;;18.57;65.06
75551;BME280;65071;53.082;18.218;2023-06-14T06:17:10;101461.39;;;18.64;65.18
75551;BME280;65071;53.082;18.218;2023-06-14T06:19:45;101464.86;;;18.71;64.24
75551;BME280;65071;53.082;18.218;2023-06-14T06:22:12;101466.64;;;18.75;64.44
75551;BME280;65071;53.082;18.218;2023-06-14T06:24:52;101464.98;;;18.83;64.78
75551;BME280;65071;53.082;18.218;2023-06-14T06:27:18;101464.69;;;18.89;64.73
75551;BME280;65071;53.082;18.218;2023-06-14T06:29:47;101463.95;;;18.96;64.46
75551;BME280;65071;53.082;18.218;2023-06-14T06:32:15;101472.19;;;19.03;63.89
75551;BME280;65071;53.082;18.218;2023-06-14T06:35:04;101471.04;;;19.08;64.08
75551;BME280;65071;53.082;18.218;2023-06-14T06:37:41;101470.08;;;19.11;63.49
75551;BME280;65071;53.082;18.218;2023-06-14T06:40:08;101469.55;;;19.05;62.84
75551;BME280;65071;53.082;18.218;2023-06-14T06:42:36;101468.16;;;19.00;63.24
75551;BME280;65071;53.082;18.218;2023-06-14T06:45:05;101469.27;;;18.94;62.96
75551;BME280;65071;53.082;18.218;2023-06-14T06:47:32;101472.90;;;18.93;63.10
75551;BME280;65071;53.082;18.218;2023-06-14T06:49:58;101478.77;;;18.91;63.14
75551;BME280;65071;53.082;18.218;2023-06-14T06:52:31;101481.09;;;18.86;63.35
75551;BME280;65071;53.082;18.218;2023-06-14T06:58:21;101492.93;;;18.90;63.37
75551;BME280;65071;53.082;18.218;2023-06-14T07:04:42;101497.91;;;18.93;63.35
75551;BME280;65071;53.082;18.218;2023-06-14T07:07:43;101499.89;;;18.96;63.26
75551;BME280;65071;53.082;18.218;2023-06-14T07:10:22;101502.73;;;18.98;62.67
75551;BME280;65071;53.082;18.218;2023-06-14T07:16:25;101492.67;;;19.04;62.65
75551;BME280;65071;53.082;18.218;2023-06-14T07:18:52;101490.85;;;19.07;62.24
75551;BME280;65071;53.082;18.218;2023-06-14T07:21:19;101483.52;;;19.13;62.94
75551;BME280;65071;53.082;18.218;2023-06-14T07:23:45;101472.67;;;19.19;62.35
75551;BME280;65071;53.082;18.218;2023-06-14T07:26:12;101462.67;;;19.25;61.97
75551;BME280;65071;53.082;18.218;2023-06-14T07:28:39;101462.74;;;19.27;61.72
75551;BME280;65071;53.082;18.218;2023-06-14T07:31:06;101468.62;;;19.32;61.85
75551;BME280;65071;53.082;18.218;2023-06-14T07:33:33;101471.21;;;19.39;61.53
75551;BME280;65071;53.082;18.218;2023-06-14T07:35:59;101473.58;;;19.42;60.77
75551;BME280;65071;53.082;18.218;2023-06-14T07:41:51;101466.59;;;19.66;60.39
75551;BME280;65071;53.082;18.218;2023-06-14T07:47:51;101459.87;;;19.81;59.96
75551;BME280;65071;53.082;18.218;2023-06-14T08:00:35;101470.73;;;20.67;57.77
75551;BME280;65071;53.082;18.218;2023-06-14T08:06:47;101476.33;;;21.30;56.60
75551;BME280;65071;53.082;18.218;2023-06-14T08:09:36;101480.47;;;21.44;56.01
75551;BME280;65071;53.082;18.218;2023-06-14T08:12:46;101489.66;;;21.53;54.25
75551;BME280;65071;53.082;18.218;2023-06-14T08:22:06;101492.88;;;21.67;53.76
75551;BME280;65071;53.082;18.218;2023-06-14T08:24:50;101488.20;;;21.69;53.37
75551;BME280;65071;53.082;18.218;2023-06-14T08:30:51;101498.59;;;21.72;53.52
75551;BME280;65071;53.082;18.218;2023-06-14T08:33:18;101503.23;;;21.77;52.03
75551;BME280;65071;53.082;18.218;2023-06-14T08:35:45;101494.98;;;21.88;51.35
75551;BME280;65071;53.082;18.218;2023-06-14T08:38:12;101490.65;;;22.06;51.04
75551;BME280;65071;53.082;18.218;2023-06-14T08:40:41;101495.36;;;22.30;50.63
75551;BME280;65071;53.082;18.218;2023-06-14T08:43:11;101494.39;;;22.52;50.14
75551;BME280;65071;53.082;18.218;2023-06-14T08:45:39;101493.41;;;22.70;49.23
75551;BME280;65071;53.082;18.218;2023-06-14T08:48:07;101494.52;;;22.84;48.28
75551;BME280;65071;53.082;18.218;2023-06-14T08:50:36;101498.76;;;22.89;48.14
75551;BME280;65071;53.082;18.218;2023-06-14T08:54:11;101497.35;;;22.72;47.71
75551;BME280;65071;53.082;18.218;2023-06-14T08:56:38;101500.81;;;22.64;48.61
75551;BME280;65071;53.082;18.218;2023-06-14T08:59:09;101502.50;;;22.52;46.86
75551;BME280;65071;53.082;18.218;2023-06-14T09:01:37;101496.46;;;22.47;47.02
75551;BME280;65071;53.082;18.218;2023-06-14T09:04:03;101504.48;;;22.41;46.99
75551;BME280;65071;53.082;18.218;2023-06-14T09:06:34;101507.66;;;22.29;47.74
75551;BME280;65071;53.082;18.218;2023-06-14T09:09:03;101504.16;;;22.19;47.44
75551;BME280;65071;53.082;18.218;2023-06-14T09:11:30;101498.20;;;22.21;48.05
75551;BME280;65071;53.082;18.218;2023-06-14T09:13:57;101500.69;;;22.33;47.34
75551;BME280;65071;53.082;18.218;2023-06-14T09:16:25;101499.67;;;22.48;47.71
75551;BME280;65071;53.082;18.218;2023-06-14T09:18:54;101496.73;;;22.65;47.51
75551;BME280;65071;53.082;18.218;2023-06-14T09:21:21;101494.46;;;22.76;47.70
75551;BME280;65071;53.082;18.218;2023-06-14T09:23:48;101496.01;;;22.85;46.29
75551;BME280;65071;53.082;18.218;2023-06-14T09:26:16;101493.67;;;22.94;45.89
75551;BME280;65071;53.082;18.218;2023-06-14T09:28:47;101494.36;;;23.01;45.56
75551;BME280;65071;53.082;18.218;2023-06-14T09:31:19;101485.94;;;23.11;45.51
75551;BME280;65071;53.082;18.218;2023-06-14T09:33:48;101483.13;;;23.25;45.87
75551;BME280;65071;53.082;18.218;2023-06-14T09:36:17;101482.08;;;23.40;44.88
75551;BME280;65071;53.082;18.218;2023-06-14T09:39:02;101477.31;;;23.60;44.21
75551;BME280;65071;53.082;18.218;2023-06-14T09:41:33;101469.30;;;23.77;44.24
75551;BME280;65071;53.082;18.218;2023-06-14T09:44:05;101467.31;;;24.00;42.49
75551;BME280;65071;53.082;18.218;2023-06-14T09:46:37;101465.86;;;24.24;42.66
75551;BME280;65071;53.082;18.218;2023-06-14T09:49:05;101469.52;;;24.49;42.46
75551;BME280;65071;53.082;18.218;2023-06-14T09:51:32;101472.43;;;24.66;41.25
75551;BME280;65071;53.082;18.218;2023-06-14T09:54:00;101471.73;;;24.80;42.08
75551;BME280;65071;53.082;18.218;2023-06-14T09:58:59;101477.64;;;24.82;41.64
75551;BME280;65071;53.082;18.218;2023-06-14T10:01:28;101477.75;;;24.96;42.62
75551;BME280;65071;53.082;18.218;2023-06-14T10:08:04;101477.13;;;24.98;41.80
75551;BME280;65071;53.082;18.218;2023-06-14T10:10:35;101480.15;;;24.78;42.19
75551;BME280;65071;53.082;18.218;2023-06-14T10:14:07;101474.91;;;24.57;42.93
75551;BME280;65071;53.082;18.218;2023-06-14T10:17:03;101470.42;;;24.46;43.31
75551;BME280;65071;53.082;18.218;2023-06-14T10:19:55;101468.20;;;24.44;43.72
75551;BME280;65071;53.082;18.218;2023-06-14T10:25:50;101463.02;;;24.54;43.72
75551;BME280;65071;53.082;18.218;2023-06-14T10:28:19;101466.70;;;24.59;43.15
75551;BME280;65071;53.082;18.218;2023-06-14T10:31:08;101467.09;;;24.75;43.16
75551;BME280;65071;53.082;18.218;2023-06-14T10:33:49;101468.99;;;24.85;42.11
75551;BME280;65071;53.082;18.218;2023-06-14T10:36:28;101463.63;;;24.81;42.73
75551;BME280;65071;53.082;18.218;2023-06-14T10:38:58;101462.10;;;24.87;42.71
75551;BME280;65071;53.082;18.218;2023-06-14T10:41:30;101460.31;;;24.93;42.90
75551;BME280;65071;53.082;18.218;2023-06-14T10:46:34;101453.02;;;25.14;42.51
75551;BME280;65071;53.082;18.218;2023-06-14T10:49:00;101454.03;;;25.12;42.22
75551;BME280;65071;53.082;18.218;2023-06-14T10:51:30;101451.35;;;25.15;42.12
75551;BME280;65071;53.082;18.218;2023-06-14T10:53:59;101452.80;;;25.25;42.56
75551;BME280;65071;53.082;18.218;2023-06-14T10:56:29;101448.61;;;25.39;41.38
75551;BME280;65071;53.082;18.218;2023-06-14T10:58:57;101449.33;;;25.57;40.57
75551;BME280;65071;53.082;18.218;2023-06-14T11:01:38;101440.29;;;25.84;40.91
75551;BME280;65071;53.082;18.218;2023-06-14T11:04:11;101435.90;;;26.12;39.91
75551;BME280;65071;53.082;18.218;2023-06-14T11:06:49;101434.94;;;26.10;38.22
75551;BME280;65071;53.082;18.218;2023-06-14T11:09:22;101433.59;;;26.10;38.52
75551;BME280;65071;53.082;18.218;2023-06-14T11:11:53;101439.63;;;26.11;38.64
75551;BME280;65071;53.082;18.218;2023-06-14T11:14:22;101433.20;;;26.01;37.45
75551;BME280;65071;53.082;18.218;2023-06-14T11:16:50;101435.52;;;25.95;38.33
75551;BME280;65071;53.082;18.218;2023-06-14T11:19:16;101436.98;;;25.60;37.66
75551;BME280;65071;53.082;18.218;2023-06-14T11:21:49;101437.60;;;25.37;36.58
75551;BME280;65071;53.082;18.218;2023-06-14T11:24:16;101435.95;;;25.13;36.88
75551;BME280;65071;53.082;18.218;2023-06-14T11:26:43;101435.02;;;25.25;38.18
75551;BME280;65071;53.082;18.218;2023-06-14T11:29:10;101432.90;;;25.34;37.50
75551;BME280;65071;53.082;18.218;2023-06-14T11:31:36;101428.16;;;25.53;35.34
75551;BME280;65071;53.082;18.218;2023-06-14T11:34:03;101435.63;;;25.48;34.27
75551;BME280;65071;53.082;18.218;2023-06-14T11:36:33;101434.33;;;25.70;33.72
75551;BME280;65071;53.082;18.218;2023-06-14T11:39:03;101431.04;;;25.71;31.95
75551;BME280;65071;53.082;18.218;2023-06-14T11:41:43;101428.36;;;25.66;30.58
75551;BME280;65071;53.082;18.218;2023-06-14T11:44:10;101423.00;;;25.88;31.13
75551;BME280;65071;53.082;18.218;2023-06-14T11:46:38;101429.31;;;26.00;29.87
75551;BME280;65071;53.082;18.218;2023-06-14T11:49:07;101424.13;;;25.97;29.61
75551;BME280;65071;53.082;18.218;2023-06-14T11:51:36;101425.41;;;25.89;30.39
75551;BME280;65071;53.082;18.218;2023-06-14T11:54:05;101417.81;;;26.01;30.22
75551;BME280;65071;53.082;18.218;2023-06-14T11:56:33;101423.48;;;26.01;31.38
75551;BME280;65071;53.082;18.218;2023-06-14T11:59:03;101418.36;;;25.88;31.96
75551;BME280;65071;53.082;18.218;2023-06-14T12:01:31;101410.23;;;25.85;32.06
75551;BME280;65071;53.082;18.218;2023-06-14T12:03:59;101416.14;;;25.62;33.76
75551;BME280;65071;53.082;18.218;2023-06-14T12:06:27;101420.90;;;25.49;35.52
75551;BME280;65071;53.082;18.218;2023-06-14T12:09:06;101413.64;;;25.06;36.17
75551;BME280;65071;53.082;18.218;2023-06-14T12:11:37;101411.14;;;24.89;36.58
75551;BME280;65071;53.082;18.218;2023-06-14T12:14:04;101412.34;;;24.56;35.81
75551;BME280;65071;53.082;18.218;2023-06-14T12:16:38;101409.34;;;24.19;36.21
75551;BME280;65071;53.082;18.218;2023-06-14T12:21:37;101410.09;;;23.78;37.85
75551;BME280;65071;53.082;18.218;2023-06-14T12:24:05;101409.13;;;23.71;38.06
75551;BME280;65071;53.082;18.218;2023-06-14T12:26:33;101408.37;;;23.63;37.44
75551;BME280;65071;53.082;18.218;2023-06-14T12:29:00;101410.92;;;23.56;37.04
75551;BME280;65071;53.082;18.218;2023-06-14T12:31:27;101406.97;;;23.38;37.48
75551;BME280;65071;53.082;18.218;2023-06-14T12:33:53;101405.56;;;23.40;37.43
75551;BME280;65071;53.082;18.218;2023-06-14T12:36:20;101407.27;;;23.36;37.52
75551;BME280;65071;53.082;18.218;2023-06-14T12:38:47;101408.98;;;23.42;37.30
75551;BME280;65071;53.082;18.218;2023-06-14T12:41:14;101407.52;;;23.51;36.99
75551;BME280;65071;53.082;18.218;2023-06-14T12:43:40;101407.13;;;23.47;36.72
75551;BME280;65071;53.082;18.218;2023-06-14T12:46:07;101410.12;;;23.29;37.00
75551;BME280;65071;53.082;18.218;2023-06-14T12:48:34;101411.96;;;23.19;37.58
75551;BME280;65071;53.082;18.218;2023-06-14T12:51:00;101420.16;;;23.12;37.90
75551;BME280;65071;53.082;18.218;2023-06-14T12:53:27;101413.61;;;22.99;38.54
75551;BME280;65071;53.082;18.218;2023-06-14T12:55:54;101421.88;;;22.84;39.51
75551;BME280;65071;53.082;18.218;2023-06-14T12:58:21;101415.98;;;22.70;40.20
75551;BME280;65071;53.082;18.218;2023-06-14T13:00:48;101412.58;;;22.63;40.87
75551;BME280;65071;53.082;18.218;2023-06-14T13:03:14;101412.18;;;22.45;41.78
75551;BME280;65071;53.082;18.218;2023-06-14T13:05:41;101410.27;;;22.41;41.96
75551;BME280;65071;53.082;18.218;2023-06-14T13:08:09;101413.33;;;22.39;42.76
75551;BME280;65071;53.082;18.218;2023-06-14T13:10:36;101413.23;;;22.46;42.82
75551;BME280;65071;53.082;18.218;2023-06-14T13:13:03;101417.03;;;22.58;42.88
75551;BME280;65071;53.082;18.218;2023-06-14T13:15:30;101418.89;;;22.65;42.48
75551;BME280;65071;53.082;18.218;2023-06-14T13:17:56;101419.73;;;22.62;41.98
75551;BME280;65071;53.082;18.218;2023-06-14T13:20:23;101419.48;;;22.62;41.62
75551;BME280;65071;53.082;18.218;2023-06-14T13:22:58;101419.14;;;22.53;40.82
75551;BME280;65071;53.082;18.218;2023-06-14T13:25:26;101414.70;;;22.51;40.62
75551;BME280;65071;53.082;18.218;2023-06-14T13:27:52;101410.68;;;22.53;40.71
75551;BME280;65071;53.082;18.218;2023-06-14T13:30:19;101411.31;;;22.53;41.08
75551;BME280;65071;53.082;18.218;2023-06-14T13:32:47;101410.98;;;22.52;41.33
75551;BME280;65071;53.082;18.218;2023-06-14T13:35:13;101415.41;;;22.56;40.91
75551;BME280;65071;53.082;18.218;2023-06-14T13:37:40;101416.98;;;22.57;39.80
75551;BME280;65071;53.082;18.218;2023-06-14T13:40:07;101415.09;;;22.46;39.57
75551;BME280;65071;53.082;18.218;2023-06-14T13:42:34;101415.12;;;22.28;38.79
75551;BME280;65071;53.082;18.218;2023-06-14T13:45:02;101411.91;;;22.17;38.82
75551;BME280;65071;53.082;18.218;2023-06-14T13:47:32;101411.27;;;22.11;38.99
75551;BME280;65071;53.082;18.218;2023-06-14T13:49:58;101411.06;;;22.16;39.75
75551;BME280;65071;53.082;18.218;2023-06-14T13:52:25;101420.98;;;22.08;40.08
75551;BME280;65071;53.082;18.218;2023-06-14T13:54:52;101417.63;;;21.98;40.00
75551;BME280;65071;53.082;18.218;2023-06-14T13:57:19;101425.03;;;21.90;41.01
75551;BME280;65071;53.082;18.218;2023-06-14T13:59:46;101430.20;;;21.83;40.63